Time;durP1;ratioP1;P1;durP2;ratioP2;P2;SDS_P1;SDS_P2;PMS_P1;PMS_P2;Temp;Humidity;BMP_temperature;BMP_pressure;BME280_temperature;BME280_humidity;BME280_pressure;Samples;Min_cycle;Max_cycle;Signal;HPM_P1;HPM_P2
2022/07/23 00:00:56;;;;;;;9.13;4.30;;;;;;;;;;10428442;28;20037;-46
2022/07/23 00:05:56;;;;;;;5.22;3.90;;;;;;;;;;10425740;28;20029;-47
2022/07/23 00:10:57;;;;;;;8.98;4.55;;;;;;;;;;10444859;28;20100;-46
2022/07/23 00:15:58;;;;;;;5.07;4.15;;;;;;;;;;10446011;28;20132;-47
2022/07/23 00:20:58;;;;;;;5.28;4.05;;;;;;;;;;10442589;28;20033;-46
2022/07/23 00:25:59;;;;;;;6.07;3.80;;;;;;;;;;10442793;28;20112;-45
2022/07/23 00:30:59;;;;;;;5.93;4.07;;;;;;;;;;10430943;28;20470;-46
2022/07/23 00:36:00;;;;;;;4.93;3.55;;;;;;;;;;10435024;28;20033;-45
2022/07/23 00:41:00;;;;;;;6.05;4.07;;;;;;;;;;10438926;28;20032;-46
2022/07/23 00:46:01;;;;;;;5.35;3.70;;;;;;;;;;10428866;28;20536;-47
2022/07/23 00:51:02;;;;;;;8.88;4.15;;;;;;;;;;10439708;28;20392;-45
2022/07/23 00:56:03;;;;;;;4.72;3.60;;;;;;;;;;10440100;28;20029;-46
2022/07/23 01:01:04;;;;;;;9.73;3.90;;;;;;;;;;10433499;28;20025;-45
2022/07/23 01:06:04;;;;;;;5.72;4.13;;;;;;;;;;10435343;28;20029;-47
2022/07/23 01:11:05;;;;;;;5.18;3.90;;;;;;;;;;10448343;28;20111;-45
2022/07/23 01:16:06;;;;;;;5.40;4.00;;;;;;;;;;10443614;28;20034;-46
2022/07/23 01:21:12;;;;;;;6.13;4.28;;;;;;;;;;10434931;28;20033;-44
2022/07/23 01:26:15;;;;;;;4.45;3.80;;;;;;;;;;10438551;28;20472;-45
2022/07/23 01:31:17;;;;;;;6.32;3.88;;;;;;;;;;10436800;28;20018;-45
2022/07/23 01:36:18;;;;;;;5.40;4.15;;;;;;;;;;10427758;28;20059;-45
2022/07/23 01:41:20;;;;;;;4.78;4.10;;;;;;;;;;10435805;28;20056;-45
2022/07/23 01:46:20;;;;;;;7.90;3.90;;;;;;;;;;10443325;28;20658;-45
2022/07/23 01:51:21;;;;;;;5.72;3.50;;;;;;;;;;10444046;28;20033;-45
2022/07/23 01:56:21;;;;;;;5.88;3.97;;;;;;;;;;10441935;28;20032;-44
2022/07/23 02:01:22;;;;;;;8.40;3.42;;;;;;;;;;10422776;28;20013;-46
2022/07/23 02:06:22;;;;;;;4.28;3.45;;;;;;;;;;10441939;28;20025;-45
2022/07/23 02:11:23;;;;;;;3.90;3.40;;;;;;;;;;10445880;28;20033;-45
2022/07/23 02:16:24;;;;;;;4.35;3.42;;;;;;;;;;10448542;28;20029;-45
2022/07/23 02:21:24;;;;;;;3.83;3.42;;;;;;;;;;10440152;28;20024;-45
2022/07/23 02:26:25;;;;;;;5.80;3.92;;;;;;;;;;10436330;28;20564;-45
2022/07/23 02:31:25;;;;;;;5.18;3.63;;;;;;;;;;10442741;28;20557;-46
2022/07/23 02:36:26;;;;;;;4.50;3.50;;;;;;;;;;10440037;28;20132;-46
2022/07/23 02:41:27;;;;;;;5.78;3.50;;;;;;;;;;10439214;28;20032;-46
2022/07/23 02:46:28;;;;;;;9.15;4.22;;;;;;;;;;10447659;28;20033;-46
2022/07/23 02:51:28;;;;;;;17.45;4.38;;;;;;;;;;10453152;28;20017;-46
2022/07/23 02:56:29;;;;;;;6.28;3.55;;;;;;;;;;10442575;28;20037;-46
2022/07/23 03:01:29;;;;;;;4.63;3.47;;;;;;;;;;10439819;28;20017;-46
2022/07/23 03:06:30;;;;;;;10.68;3.65;;;;;;;;;;10449173;28;20029;-46
2022/07/23 03:11:31;;;;;;;4.90;3.20;;;;;;;;;;10450116;28;20360;-46
2022/07/23 03:16:31;;;;;;;6.65;3.60;;;;;;;;;;10440699;28;20059;-47
2022/07/23 03:21:32;;;;;;;6.38;3.95;;;;;;;;;;10440323;28;20034;-56
2022/07/23 03:26:33;;;;;;;4.90;3.50;;;;;;;;;;10434695;28;20555;-58
2022/07/23 03:31:33;;;;;;;13.02;3.60;;;;;;;;;;10445347;28;20021;-58
2022/07/23 03:36:34;;;;;;;7.28;3.70;;;;;;;;;;10436405;28;20380;-56
2022/07/23 03:41:34;;;;;;;11.38;3.58;;;;;;;;;;10448897;28;20481;-57
2022/07/23 03:46:35;;;;;;;5.30;3.38;;;;;;;;;;10442146;28;20503;-59
2022/07/23 03:51:35;;;;;;;9.30;3.75;;;;;;;;;;10435791;28;20288;-59
2022/07/23 03:56:36;;;;;;;4.43;3.28;;;;;;;;;;10439326;28;20045;-61
2022/07/23 04:01:37;;;;;;;5.43;3.22;;;;;;;;;;10445975;28;20120;-52
2022/07/23 04:06:38;;;;;;;4.93;3.40;;;;;;;;;;10438468;28;20033;-61
2022/07/23 04:11:39;;;;;;;3.47;3.17;;;;;;;;;;10449315;28;20032;-58
2022/07/23 04:16:39;;;;;;;3.45;3.15;;;;;;;;;;10447040;28;20041;-58
2022/07/23 04:21:40;;;;;;;4.38;3.00;;;;;;;;;;10448882;28;20021;-60
2022/07/23 04:26:40;;;;;;;4.75;3.28;;;;;;;;;;10445395;28;20045;-59
2022/07/23 04:31:41;;;;;;;5.30;3.40;;;;;;;;;;10444295;28;20380;-56
2022/07/23 04:36:42;;;;;;;4.85;3.30;;;;;;;;;;10444535;28;20396;-58
2022/07/23 04:41:42;;;;;;;5.20;3.08;;;;;;;;;;10444183;28;20369;-60
2022/07/23 04:46:43;;;;;;;4.07;3.22;;;;;;;;;;10436100;28;20100;-56
2022/07/23 04:51:43;;;;;;;3.67;3.38;;;;;;;;;;10431686;28;20028;-59
2022/07/23 04:56:44;;;;;;;7.35;3.30;;;;;;;;;;10429413;28;20037;-60
2022/07/23 05:01:44;;;;;;;4.20;3.00;;;;;;;;;;10444508;28;20021;-59
2022/07/23 05:06:45;;;;;;;3.97;3.05;;;;;;;;;;10437471;28;20419;-57
2022/07/23 05:11:46;;;;;;;4.72;3.60;;;;;;;;;;10440790;28;20350;-58
2022/07/23 05:16:47;;;;;;;4.05;2.85;;;;;;;;;;10431792;28;20047;-59
2022/07/23 05:21:48;;;;;;;4.50;3.10;;;;;;;;;;10434911;28;20472;-58
2022/07/23 05:26:50;;;;;;;11.85;3.58;;;;;;;;;;10463780;23;20215;-58
2022/07/23 05:31:52;;;;;;;4.63;3.40;;;;;;;;;;10456736;28;20421;-54
2022/07/23 05:36:53;;;;;;;7.75;3.58;;;;;;;;;;10457007;28;20048;-54
2022/07/23 05:41:55;;;;;;;4.22;3.25;;;;;;;;;;10464284;28;20053;-55
2022/07/23 05:46:56;;;;;;;5.20;3.17;;;;;;;;;;10463893;28;20025;-57
2022/07/23 05:51:58;;;;;;;4.55;3.10;;;;;;;;;;10463996;28;20052;-53
2022/07/23 05:57:00;;;;;;;5.55;3.05;;;;;;;;;;10463757;28;20032;-54
2022/07/23 06:02:01;;;;;;;5.07;2.90;;;;;;;;;;10463572;28;20050;-61
2022/07/23 06:07:03;;;;;;;5.07;3.20;;;;;;;;;;10463857;28;20029;-61
2022/07/23 06:12:05;;;;;;;4.65;3.10;;;;;;;;;;10463740;28;20043;-60
2022/07/23 06:17:08;;;;;;;4.00;3.10;;;;;;;;;;10463976;28;20025;-60
2022/07/23 06:22:10;;;;;;;6.63;3.13;;;;;;;;;;10463322;28;20056;-60
2022/07/23 06:27:12;;;;;;;3.95;3.15;;;;;;;;;;10462338;28;20068;-60
2022/07/23 06:32:14;;;;;;;4.30;3.53;;;;;;;;;;10462921;28;20036;-57
2022/07/23 06:37:16;;;;;;;5.97;3.70;;;;;;;;;;10462045;28;20039;-60
2022/07/23 06:42:18;;;;;;;3.92;3.20;;;;;;;;;;10462095;28;20049;-59
2022/07/23 06:47:20;;;;;;;6.60;3.60;;;;;;;;;;10461763;28;20025;-56
2022/07/23 06:52:21;;;;;;;4.15;3.25;;;;;;;;;;10460869;28;20472;-59
2022/07/23 06:57:25;;;;;;;3.42;3.13;;;;;;;;;;10461321;28;20037;-59
2022/07/23 07:02:26;;;;;;;6.68;3.40;;;;;;;;;;10461830;28;20116;-59
2022/07/23 07:07:28;;;;;;;3.50;3.20;;;;;;;;;;10461065;28;20025;-57
2022/07/23 07:12:29;;;;;;;4.50;3.05;;;;;;;;;;10460954;28;20025;-58
2022/07/23 07:17:31;;;;;;;7.47;4.53;;;;;;;;;;10460739;28;20033;-49
2022/07/23 07:22:33;;;;;;;17.48;9.88;;;;;;;;;;10460517;28;20460;-55
2022/07/23 07:27:34;;;;;;;22.63;9.93;;;;;;;;;;10460005;28;20381;-57
2022/07/23 07:32:36;;;;;;;20.50;10.82;;;;;;;;;;10460058;28;20040;-58
2022/07/23 07:37:38;;;;;;;20.75;10.93;;;;;;;;;;10459773;28;20036;-58
2022/07/23 07:42:52;;;;;;;17.88;10.57;;;;;;;;;;10459586;28;20029;-58
2022/07/23 07:47:54;;;;;;;16.23;11.43;;;;;;;;;;10459412;28;20029;-58
2022/07/23 07:52:55;;;;;;;18.38;10.60;;;;;;;;;;10459730;28;20040;-59
2022/07/23 07:57:58;;;;;;;14.13;10.20;;;;;;;;;;10459584;28;20064;-57
2022/07/23 08:03:00;;;;;;;19.70;9.98;;;;;;;;;;10458365;28;20048;-59
2022/07/23 08:08:02;;;;;;;16.52;10.45;;;;;;;;;;10459199;28;20512;-59
2022/07/23 08:13:03;;;;;;;15.18;11.02;;;;;;;;;;10458334;28;20051;-59
2022/07/23 08:18:05;;;;;;;21.83;10.80;;;;;;;;;;10459341;28;20036;-59
2022/07/23 08:23:08;;;;;;;14.45;10.32;;;;;;;;;;10459134;28;20028;-58
2022/07/23 08:28:13;;;;;;;15.25;10.15;;;;;;;;;;10458857;28;20041;-59
2022/07/23 08:33:17;;;;;;;13.82;9.55;;;;;;;;;;10459095;28;20032;-60
2022/07/23 08:38:21;;;;;;;20.38;10.48;;;;;;;;;;10458047;28;20032;-59
2022/07/23 08:43:26;;;;;;;31.13;10.10;;;;;;;;;;10458296;28;20029;-56
2022/07/23 08:48:33;;;;;;;14.32;9.95;;;;;;;;;;10447873;28;20042;-57
2022/07/23 08:53:38;;;;;;;20.10;10.37;;;;;;;;;;10447659;28;20641;-57
2022/07/23 08:58:39;;;;;;;17.98;10.32;;;;;;;;;;10448358;28;20029;-57
2022/07/23 09:03:39;;;;;;;18.77;11.07;;;;;;;;;;10446951;28;20490;-57
2022/07/23 09:08:43;;;;;;;20.70;9.95;;;;;;;;;;10438931;28;20406;-57
2022/07/23 09:13:53;;;;;;;20.92;9.63;;;;;;;;;;10437159;28;20033;-57
2022/07/23 09:18:57;;;;;;;13.15;9.02;;;;;;;;;;10443879;28;20484;-57
2022/07/23 09:24:10;;;;;;;21.38;9.90;;;;;;;;;;10433244;28;20115;-58
2022/07/23 09:29:25;;;;;;;15.73;9.57;;;;;;;;;;10433557;28;20111;-56
2022/07/23 09:34:35;;;;;;;16.63;9.70;;;;;;;;;;10443138;28;20115;-57
2022/07/23 09:39:35;;;;;;;15.38;9.10;;;;;;;;;;10444088;28;20576;-57
2022/07/23 09:44:42;;;;;;;15.88;8.93;;;;;;;;;;10432426;28;20200;-57
2022/07/23 09:50:09;;;;;;;16.05;9.38;;;;;;;;;;10435826;28;20041;-57
2022/07/23 09:55:10;;;;;;;16.55;9.02;;;;;;;;;;10441483;28;20108;-58
2022/07/23 10:00:12;;;;;;;17.23;9.38;;;;;;;;;;10446311;28;20052;-57
2022/07/23 10:05:15;;;;;;;13.07;9.30;;;;;;;;;;10436073;28;20080;-57
2022/07/23 10:10:16;;;;;;;12.63;9.40;;;;;;;;;;10444363;28;20142;-55
2022/07/23 10:15:18;;;;;;;15.30;8.75;;;;;;;;;;10435259;28;20159;-55
2022/07/23 10:20:19;;;;;;;17.85;9.32;;;;;;;;;;10445003;28;20032;-56
2022/07/23 10:25:26;;;;;;;15.68;9.10;;;;;;;;;;10446434;28;20061;-56
2022/07/23 10:30:55;;;;;;;15.57;9.20;;;;;;;;;;10453735;28;20280;-54
2022/07/23 10:36:16;;;;;;;14.85;8.45;;;;;;;;;;10444367;28;20036;-57
2022/07/23 10:41:40;;;;;;;15.25;9.00;;;;;;;;;;10434491;28;20025;-53
2022/07/23 10:52:27;;;;;;;11.40;8.82;;;;;;;;;;10449923;28;20479;-56
2022/07/23 10:57:28;;;;;;;13.55;9.38;;;;;;;;;;10450411;28;20468;-55
2022/07/23 11:02:33;;;;;;;16.65;8.27;;;;;;;;;;10445277;28;20029;-56
2022/07/23 11:07:36;;;;;;;14.00;8.57;;;;;;;;;;10450422;28;20029;-57
2022/07/23 11:12:37;;;;;;;17.25;8.80;;;;;;;;;;10452245;28;20033;-56
2022/07/23 11:17:45;;;;;;;11.98;8.25;;;;;;;;;;10450394;28;20033;-57
2022/07/23 11:22:45;;;;;;;12.00;8.70;;;;;;;;;;10450951;28;20126;-54
2022/07/23 11:27:47;;;;;;;12.17;7.83;;;;;;;;;;10449254;28;20082;-54
2022/07/23 11:32:47;;;;;;;10.90;8.32;;;;;;;;;;10442853;28;20482;-54
2022/07/23 11:37:48;;;;;;;9.93;7.05;;;;;;;;;;10449585;28;20040;-56
2022/07/23 11:43:05;;;;;;;13.68;7.82;;;;;;;;;;10449859;28;20167;-56
2022/07/23 11:48:24;;;;;;;14.70;7.55;;;;;;;;;;10433812;28;20071;-57
2022/07/23 11:53:30;;;;;;;9.77;6.75;;;;;;;;;;10439296;28;20091;-52
2022/07/23 11:58:31;;;;;;;11.23;7.32;;;;;;;;;;10439113;28;20033;-55
2022/07/23 12:03:32;;;;;;;11.68;7.00;;;;;;;;;;10446478;28;20087;-58
2022/07/23 12:08:32;;;;;;;12.68;7.32;;;;;;;;;;10440220;28;20062;-58
2022/07/23 12:13:33;;;;;;;13.55;7.10;;;;;;;;;;10448771;28;20028;-58
2022/07/23 12:18:34;;;;;;;17.20;7.18;;;;;;;;;;10427439;28;20068;-59
2022/07/23 12:23:37;;;;;;;8.25;6.60;;;;;;;;;;10430989;28;20052;-55
2022/07/23 12:28:39;;;;;;;10.43;6.55;;;;;;;;;;10444763;28;20078;-55
2022/07/23 12:33:40;;;;;;;8.63;6.65;;;;;;;;;;10434849;28;20074;-53
2022/07/23 12:38:48;;;;;;;9.27;5.97;;;;;;;;;;10436821;28;20113;-55
2022/07/23 12:43:49;;;;;;;10.27;7.13;;;;;;;;;;10444334;28;20033;-56
2022/07/23 12:48:53;;;;;;;10.43;6.65;;;;;;;;;;10428611;28;20044;-54
2022/07/23 12:53:57;;;;;;;10.82;6.05;;;;;;;;;;10435960;28;20252;-54
2022/07/23 12:59:16;;;;;;;10.15;6.22;;;;;;;;;;10443613;28;20029;-57
2022/07/23 13:04:22;;;;;;;8.95;5.82;;;;;;;;;;10432632;28;20388;-57
2022/07/23 13:09:26;;;;;;;9.30;5.78;;;;;;;;;;10440756;28;20032;-50
2022/07/23 13:14:27;;;;;;;7.82;5.97;;;;;;;;;;10421395;28;20034;-56
2022/07/23 13:19:28;;;;;;;7.78;5.28;;;;;;;;;;10423087;28;20025;-53
2022/07/23 13:24:29;;;;;;;13.70;5.68;;;;;;;;;;10420950;28;20045;-56
2022/07/23 13:29:29;;;;;;;8.25;5.97;;;;;;;;;;10413394;28;20033;-57
2022/07/23 13:34:30;;;;;;;8.27;6.32;;;;;;;;;;10420888;28;20350;-56
2022/07/23 13:39:31;;;;;;;7.43;5.70;;;;;;;;;;10417535;28;20037;-55
2022/07/23 13:44:31;;;;;;;8.20;5.85;;;;;;;;;;10421093;28;20032;-55
2022/07/23 13:49:32;;;;;;;9.27;5.68;;;;;;;;;;10441062;28;20049;-53
2022/07/23 13:54:32;;;;;;;9.60;5.53;;;;;;;;;;10443917;28;20028;-59
2022/07/23 13:59:33;;;;;;;9.27;5.18;;;;;;;;;;10445367;28;20025;-52
2022/07/23 14:04:34;;;;;;;10.35;5.82;;;;;;;;;;10452975;28;20029;-54
2022/07/23 14:09:35;;;;;;;7.93;5.38;;;;;;;;;;10452724;28;20029;-55
2022/07/23 14:14:36;;;;;;;7.78;5.03;;;;;;;;;;10444035;28;20120;-53
2022/07/23 14:19:37;;;;;;;5.85;4.72;;;;;;;;;;10442522;28;20035;-56
2022/07/23 14:24:37;;;;;;;8.57;5.15;;;;;;;;;;10449748;28;20380;-58
2022/07/23 14:29:38;;;;;;;6.05;4.57;;;;;;;;;;10447678;28;20037;-56
2022/07/23 14:34:38;;;;;;;6.03;4.70;;;;;;;;;;10447442;28;20021;-56
2022/07/23 14:39:41;;;;;;;5.88;4.32;;;;;;;;;;10435054;28;20056;-53
2022/07/23 14:44:42;;;;;;;8.98;4.88;;;;;;;;;;10445716;28;20082;-56
2022/07/23 14:49:43;;;;;;;6.40;4.68;;;;;;;;;;10437120;28;20493;-56
2022/07/23 14:54:44;;;;;;;5.88;4.63;;;;;;;;;;10437774;28;20041;-55
2022/07/23 14:59:44;;;;;;;5.85;4.50;;;;;;;;;;10429196;28;20424;-53
2022/07/23 15:04:45;;;;;;;5.00;4.45;;;;;;;;;;10423456;28;20048;-56
2022/07/23 15:09:45;;;;;;;6.97;4.72;;;;;;;;;;10427160;28;20036;-57
2022/07/23 15:14:46;;;;;;;6.15;4.97;;;;;;;;;;10446289;28;20094;-58
2022/07/23 15:19:47;;;;;;;8.15;4.95;;;;;;;;;;10425991;28;20467;-56
2022/07/23 15:24:48;;;;;;;6.97;4.55;;;;;;;;;;10427604;28;20045;-54
2022/07/23 15:29:48;;;;;;;9.45;4.65;;;;;;;;;;10446303;28;20036;-53
2022/07/23 15:34:49;;;;;;;7.00;4.75;;;;;;;;;;10449385;28;20380;-52
2022/07/23 15:39:50;;;;;;;8.52;4.50;;;;;;;;;;10449674;28;20028;-50
2022/07/23 15:44:50;;;;;;;10.27;4.90;;;;;;;;;;10444376;28;20127;-57
2022/07/23 15:49:51;;;;;;;5.18;4.53;;;;;;;;;;10448465;28;20423;-54
2022/07/23 15:54:51;;;;;;;5.38;4.65;;;;;;;;;;10439638;28;20476;-54
2022/07/23 15:59:52;;;;;;;8.60;4.95;;;;;;;;;;10440712;28;20025;-52
2022/07/23 16:04:53;;;;;;;6.75;4.63;;;;;;;;;;10428420;28;20119;-55
2022/07/23 16:09:54;;;;;;;7.55;4.68;;;;;;;;;;10448772;28;20028;-53
2022/07/23 16:14:54;;;;;;;9.88;4.80;;;;;;;;;;10450487;28;20032;-58
2022/07/23 16:19:55;;;;;;;7.30;4.88;;;;;;;;;;10448879;28;20029;-51
2022/07/23 16:24:55;;;;;;;7.05;5.07;;;;;;;;;;10441086;28;20069;-59
2022/07/23 16:29:57;;;;;;;6.43;5.07;;;;;;;;;;10445520;28;20051;-59
2022/07/23 16:34:58;;;;;;;6.43;4.55;;;;;;;;;;10426489;28;20526;-58
2022/07/23 16:39:59;;;;;;;5.93;4.93;;;;;;;;;;10426258;28;20037;-57
2022/07/23 16:45:00;;;;;;;7.07;5.10;;;;;;;;;;10420008;28;20037;-56
2022/07/23 16:50:03;;;;;;;9.00;4.70;;;;;;;;;;10418418;28;21084;-57
2022/07/23 16:55:05;;;;;;;5.22;4.72;;;;;;;;;;10417069;28;20043;-58
2022/07/23 17:00:09;;;;;;;6.13;4.30;;;;;;;;;;10419621;28;20041;-56
2022/07/23 17:05:10;;;;;;;10.40;4.80;;;;;;;;;;10418751;28;20032;-52
2022/07/23 17:10:11;;;;;;;6.18;4.68;;;;;;;;;;10432081;28;20102;-54
2022/07/23 17:15:11;;;;;;;7.18;4.70;;;;;;;;;;10426023;28;20217;-53
2022/07/23 17:20:12;;;;;;;9.80;5.03;;;;;;;;;;10415447;28;20029;-54
2022/07/23 17:25:13;;;;;;;8.77;4.70;;;;;;;;;;10441151;28;20484;-55
2022/07/23 17:30:15;;;;;;;7.43;4.53;;;;;;;;;;10441910;28;20056;-53
2022/07/23 17:35:16;;;;;;;7.65;4.82;;;;;;;;;;10436892;28;20108;-55
2022/07/23 17:40:16;;;;;;;5.00;4.50;;;;;;;;;;10442610;28;20026;-53
2022/07/23 17:45:18;;;;;;;7.72;4.20;;;;;;;;;;10451415;28;20029;-55
2022/07/23 17:50:19;;;;;;;6.05;4.43;;;;;;;;;;10432540;28;20032;-53
2022/07/23 17:55:21;;;;;;;5.43;4.05;;;;;;;;;;10428819;28;20491;-57
2022/07/23 18:00:26;;;;;;;5.70;4.10;;;;;;;;;;10444155;28;20025;-56
2022/07/23 18:05:27;;;;;;;7.15;4.68;;;;;;;;;;10432190;28;20352;-56
2022/07/23 18:10:30;;;;;;;4.18;3.78;;;;;;;;;;10435633;28;20033;-57
2022/07/23 18:15:32;;;;;;;8.68;4.28;;;;;;;;;;10434795;28;20123;-57
2022/07/23 18:20:33;;;;;;;5.40;4.30;;;;;;;;;;10427988;28;20037;-56
2022/07/23 18:25:34;;;;;;;10.60;4.65;;;;;;;;;;10432982;28;20051;-57
2022/07/23 18:30:35;;;;;;;12.07;4.57;;;;;;;;;;10433375;28;20495;-56
2022/07/23 18:35:36;;;;;;;9.65;4.20;;;;;;;;;;10440470;28;20040;-55
2022/07/23 18:40:40;;;;;;;6.13;4.22;;;;;;;;;;10439356;28;20042;-58
2022/07/23 18:45:42;;;;;;;8.82;4.50;;;;;;;;;;10428088;28;20033;-58
2022/07/23 18:50:44;;;;;;;7.20;4.07;;;;;;;;;;10447336;28;20280;-53
2022/07/23 18:55:45;;;;;;;11.27;4.57;;;;;;;;;;10423124;28;20037;-58
2022/07/23 19:00:46;;;;;;;9.00;4.57;;;;;;;;;;10448913;28;20033;-58
2022/07/23 19:05:46;;;;;;;10.38;4.55;;;;;;;;;;10447061;28;20064;-58
2022/07/23 19:10:47;;;;;;;8.75;4.93;;;;;;;;;;10435157;28;20037;-55
2022/07/23 19:15:48;;;;;;;13.65;5.00;;;;;;;;;;10445113;28;20048;-57
2022/07/23 19:20:49;;;;;;;8.10;4.28;;;;;;;;;;10437813;28;20033;-57
2022/07/23 19:25:49;;;;;;;12.10;5.28;;;;;;;;;;10443208;28;20037;-58
2022/07/23 19:30:50;;;;;;;8.48;3.97;;;;;;;;;;10427475;28;20033;-58
2022/07/23 19:35:51;;;;;;;9.20;3.85;;;;;;;;;;10438558;28;20047;-49
2022/07/23 19:40:52;;;;;;;10.35;4.03;;;;;;;;;;10436493;28;20060;-50
2022/07/23 19:45:52;;;;;;;9.75;4.20;;;;;;;;;;10434600;28;20052;-50
2022/07/23 19:50:54;;;;;;;11.65;4.97;;;;;;;;;;10430481;28;20029;-52
2022/07/23 19:55:55;;;;;;;20.27;4.72;;;;;;;;;;10437247;28;20106;-52
2022/07/23 20:00:55;;;;;;;13.77;5.57;;;;;;;;;;10448249;28;20083;-55
2022/07/23 20:05:56;;;;;;;11.07;4.88;;;;;;;;;;10442477;28;20082;-51
2022/07/23 20:10:56;;;;;;;10.20;5.18;;;;;;;;;;10446403;28;20032;-53
2022/07/23 20:15:57;;;;;;;13.40;5.20;;;;;;;;;;10447165;28;20051;-54
2022/07/23 20:20:57;;;;;;;15.75;5.95;;;;;;;;;;10449526;28;20025;-50
2022/07/23 20:25:58;;;;;;;12.93;5.10;;;;;;;;;;10449756;28;20041;-55
2022/07/23 20:31:03;;;;;;;12.07;4.90;;;;;;;;;;10446867;28;20120;-53
2022/07/23 20:36:04;;;;;;;13.65;4.75;;;;;;;;;;10446016;28;20029;-53
2022/07/23 20:41:05;;;;;;;14.80;4.78;;;;;;;;;;10449627;28;20071;-56
2022/07/23 20:46:05;;;;;;;12.65;5.43;;;;;;;;;;10444617;28;20448;-54
2022/07/23 20:51:06;;;;;;;9.07;5.00;;;;;;;;;;10435955;28;20029;-54
2022/07/23 20:56:07;;;;;;;11.65;4.50;;;;;;;;;;10418193;28;20033;-54
2022/07/23 21:01:08;;;;;;;7.28;4.43;;;;;;;;;;10419565;28;20024;-53
2022/07/23 21:06:09;;;;;;;6.65;4.43;;;;;;;;;;10422082;28;20018;-53
2022/07/23 21:11:10;;;;;;;7.95;4.00;;;;;;;;;;10414101;28;20029;-52
2022/07/23 21:16:11;;;;;;;11.20;5.10;;;;;;;;;;10420950;28;20182;-53
2022/07/23 21:21:12;;;;;;;10.15;4.43;;;;;;;;;;10446712;28;20025;-55
2022/07/23 21:26:14;;;;;;;9.82;4.13;;;;;;;;;;10441936;28;20041;-53
2022/07/23 22:15:09;;;;;;;7.40;3.58;;;;;;;;;;10439686;28;21943;-55
2022/07/23 22:20:12;;;;;;;8.05;4.20;;;;;;;;;;10442702;28;20040;-51
2022/07/23 22:25:14;;;;;;;17.05;4.32;;;;;;;;;;10449921;28;20083;-54
2022/07/23 22:30:16;;;;;;;12.57;4.20;;;;;;;;;;10448663;28;20036;-52
2022/07/23 22:35:18;;;;;;;9.85;3.83;;;;;;;;;;10454463;28;20388;-54
2022/07/23 22:40:19;;;;;;;10.90;4.18;;;;;;;;;;10447731;28;20490;-57
2022/07/23 22:45:20;;;;;;;8.57;3.83;;;;;;;;;;10454088;28;20029;-50
2022/07/23 22:50:20;;;;;;;12.52;4.03;;;;;;;;;;10452907;28;20032;-50
2022/07/23 22:55:21;;;;;;;5.70;3.53;;;;;;;;;;10446231;28;20364;-51
2022/07/23 23:00:22;;;;;;;9.00;3.85;;;;;;;;;;10451895;28;20029;-52
2022/07/23 23:05:22;;;;;;;6.18;3.70;;;;;;;;;;10440596;28;20086;-51
2022/07/23 23:10:23;;;;;;;6.15;3.10;;;;;;;;;;10450228;28;20031;-49
2022/07/23 23:15:23;;;;;;;4.80;3.10;;;;;;;;;;10437165;28;20486;-52
2022/07/23 23:20:24;;;;;;;6.93;3.53;;;;;;;;;;10420531;28;20028;-50
2022/07/23 23:25:25;;;;;;;7.80;3.58;;;;;;;;;;10421363;28;20586;-55
2022/07/23 23:30:25;;;;;;;7.95;3.47;;;;;;;;;;10423836;28;20524;-50
2022/07/23 23:35:26;;;;;;;6.35;3.60;;;;;;;;;;10427005;28;20028;-51
2022/07/23 23:40:27;;;;;;;7.30;3.50;;;;;;;;;;10448260;28;20550;-52
2022/07/23 23:45:27;;;;;;;5.78;3.45;;;;;;;;;;10447442;28;20033;-54
2022/07/23 23:50:28;;;;;;;5.60;3.13;;;;;;;;;;10435899;28;20029;-50
2022/07/23 23:55:28;;;;;;;11.65;3.08;;;;;;;;;;10446032;28;20095;-49
